sensor_id;sensor_type;location;lat;lon;timestamp;pressure;altitude;pressure_sealevel;temperature;humidity
58785;BME280;44557;51.862;19.378;2023-02-28T00:01:16;100652.72;;;-0.76;63.01
58785;BME280;44557;51.862;19.378;2023-02-28T00:03:18;100653.36;;;-0.78;63.23
58785;BME280;44557;51.862;19.378;2023-02-28T00:05:21;100654.33;;;-0.79;63.54
58785;BME280;44557;51.862;19.378;2023-02-28T00:07:22;100655.40;;;-0.85;63.82
58785;BME280;44557;51.862;19.378;2023-02-28T00:09:23;100655.17;;;-0.77;63.68
58785;BME280;44557;51.862;19.378;2023-02-28T00:11:24;100658.40;;;-0.79;64.02
58785;BME280;44557;51.862;19.378;2023-02-28T00:13:25;100656.33;;;-0.79;63.19
58785;BME280;44557;51.862;19.378;2023-02-28T00:15:26;100656.70;;;-0.79;62.16
58785;BME280;44557;51.862;19.378;2023-02-28T00:17:27;100659.23;;;-0.85;62.84
58785;BME280;44557;51.862;19.378;2023-02-28T00:19:28;100654.96;;;-0.90;62.80
58785;BME280;44557;51.862;19.378;2023-02-28T00:21:29;100654.80;;;-0.85;61.96
58785;BME280;44557;51.862;19.378;2023-02-28T00:23:30;100654.97;;;-0.88;62.26
58785;BME280;44557;51.862;19.378;2023-02-28T00:25:31;100655.91;;;-0.83;62.63
58785;BME280;44557;51.862;19.378;2023-02-28T00:27:34;100655.81;;;-0.78;62.50
58785;BME280;44557;51.862;19.378;2023-02-28T00:29:36;100657.05;;;-0.90;62.92
58785;BME280;44557;51.862;19.378;2023-02-28T00:31:37;100658.30;;;-0.95;63.25
58785;BME280;44557;51.862;19.378;2023-02-28T00:33:38;100656.92;;;-0.90;63.38
58785;BME280;44557;51.862;19.378;2023-02-28T00:35:39;100653.30;;;-0.90;63.29
58785;BME280;44557;51.862;19.378;2023-02-28T00:37:40;100655.41;;;-0.85;62.79
58785;BME280;44557;51.862;19.378;2023-02-28T00:39:41;100653.21;;;-0.83;62.92
58785;BME280;44557;51.862;19.378;2023-02-28T00:41:43;100656.36;;;-0.91;63.10
58785;BME280;44557;51.862;19.378;2023-02-28T00:43:44;100657.09;;;-0.98;62.16
58785;BME280;44557;51.862;19.378;2023-02-28T00:45:45;100654.55;;;-0.95;62.11
58785;BME280;44557;51.862;19.378;2023-02-28T00:47:45;100653.77;;;-0.94;62.46
58785;BME280;44557;51.862;19.378;2023-02-28T00:49:50;100656.83;;;-0.97;62.00
58785;BME280;44557;51.862;19.378;2023-02-28T00:51:52;100657.83;;;-1.01;62.06
58785;BME280;44557;51.862;19.378;2023-02-28T00:53:53;100657.23;;;-0.96;62.58
58785;BME280;44557;51.862;19.378;2023-02-28T00:55:54;100659.72;;;-1.04;62.66
58785;BME280;44557;51.862;19.378;2023-02-28T00:57:55;100661.78;;;-0.93;61.92
58785;BME280;44557;51.862;19.378;2023-02-28T00:59:56;100661.11;;;-0.97;62.53
58785;BME280;44557;51.862;19.378;2023-02-28T01:01:58;100664.32;;;-0.96;62.10
58785;BME280;44557;51.862;19.378;2023-02-28T01:03:59;100662.79;;;-0.97;62.19
58785;BME280;44557;51.862;19.378;2023-02-28T01:06:00;100665.15;;;-1.01;62.38
58785;BME280;44557;51.862;19.378;2023-02-28T01:08:00;100666.65;;;-0.96;62.31
58785;BME280;44557;51.862;19.378;2023-02-28T01:10:01;100663.70;;;-0.90;62.29
58785;BME280;44557;51.862;19.378;2023-02-28T01:12:03;100667.43;;;-1.05;62.22
58785;BME280;44557;51.862;19.378;2023-02-28T01:14:04;100667.86;;;-1.08;62.44
58785;BME280;44557;51.862;19.378;2023-02-28T01:16:06;100664.27;;;-1.06;62.32
58785;BME280;44557;51.862;19.378;2023-02-28T01:18:07;100664.12;;;-1.08;62.30
58785;BME280;44557;51.862;19.378;2023-02-28T01:20:08;100661.38;;;-1.08;62.31
58785;BME280;44557;51.862;19.378;2023-02-28T01:22:10;100660.02;;;-1.08;62.81
58785;BME280;44557;51.862;19.378;2023-02-28T01:24:13;100660.14;;;-1.05;63.12
58785;BME280;44557;51.862;19.378;2023-02-28T01:26:17;100661.48;;;-1.03;62.88
58785;BME280;44557;51.862;19.378;2023-02-28T01:28:18;100662.91;;;-1.04;62.73
58785;BME280;44557;51.862;19.378;2023-02-28T01:30:19;100662.55;;;-1.05;62.89
58785;BME280;44557;51.862;19.378;2023-02-28T01:32:20;100661.90;;;-1.11;63.06
58785;BME280;44557;51.862;19.378;2023-02-28T01:34:21;100659.08;;;-1.15;63.00
58785;BME280;44557;51.862;19.378;2023-02-28T01:36:24;100661.16;;;-1.14;62.98
58785;BME280;44557;51.862;19.378;2023-02-28T01:38:25;100662.26;;;-1.14;63.04
58785;BME280;44557;51.862;19.378;2023-02-28T01:40:27;100658.45;;;-1.18;62.54
58785;BME280;44557;51.862;19.378;2023-02-28T01:42:28;100655.75;;;-1.35;62.97
58785;BME280;44557;51.862;19.378;2023-02-28T01:46:55;100655.33;;;-1.17;63.00
58785;BME280;44557;51.862;19.378;2023-02-28T01:49:12;100653.13;;;-1.26;63.07
58785;BME280;44557;51.862;19.378;2023-02-28T01:51:22;100652.85;;;-1.39;63.31
58785;BME280;44557;51.862;19.378;2023-02-28T01:53:32;100652.09;;;-1.49;63.86
58785;BME280;44557;51.862;19.378;2023-02-28T01:55:35;100653.40;;;-1.51;63.97
58785;BME280;44557;51.862;19.378;2023-02-28T01:57:43;100652.45;;;-1.50;64.30
58785;BME280;44557;51.862;19.378;2023-02-28T02:01:54;100651.96;;;-1.41;64.10
58785;BME280;44557;51.862;19.378;2023-02-28T02:03:58;100649.95;;;-1.44;64.18
58785;BME280;44557;51.862;19.378;2023-02-28T02:06:00;100647.56;;;-1.43;64.10
58785;BME280;44557;51.862;19.378;2023-02-28T02:08:04;100647.48;;;-1.59;64.50
58785;BME280;44557;51.862;19.378;2023-02-28T02:10:15;100647.52;;;-1.52;64.39
58785;BME280;44557;51.862;19.378;2023-02-28T02:14:48;100649.45;;;-1.56;64.67
58785;BME280;44557;51.862;19.378;2023-02-28T02:17:20;100654.48;;;-1.58;64.88
58785;BME280;44557;51.862;19.378;2023-02-28T02:22:02;100652.05;;;-1.56;65.00
58785;BME280;44557;51.862;19.378;2023-02-28T02:24:27;100654.81;;;-1.57;65.05
58785;BME280;44557;51.862;19.378;2023-02-28T02:34:26;100649.08;;;-1.86;66.87
58785;BME280;44557;51.862;19.378;2023-02-28T02:36:33;100643.36;;;-1.62;66.05
58785;BME280;44557;51.862;19.378;2023-02-28T02:38:45;100650.99;;;-1.74;66.21
58785;BME280;44557;51.862;19.378;2023-02-28T02:41:13;100644.11;;;-1.86;66.85
58785;BME280;44557;51.862;19.378;2023-02-28T02:43:20;100646.30;;;-1.98;67.47
58785;BME280;44557;51.862;19.378;2023-02-28T02:45:34;100648.33;;;-1.95;67.69
58785;BME280;44557;51.862;19.378;2023-02-28T02:47:38;100645.05;;;-1.98;67.82
58785;BME280;44557;51.862;19.378;2023-02-28T02:49:52;100646.73;;;-1.98;68.01
58785;BME280;44557;51.862;19.378;2023-02-28T02:51:57;100648.60;;;-1.93;67.75
58785;BME280;44557;51.862;19.378;2023-02-28T02:54:13;100645.93;;;-2.00;67.92
58785;BME280;44557;51.862;19.378;2023-02-28T02:56:21;100647.92;;;-2.00;68.01
58785;BME280;44557;51.862;19.378;2023-02-28T02:58:29;100644.39;;;-2.08;68.23
58785;BME280;44557;51.862;19.378;2023-02-28T03:00:37;100648.35;;;-2.05;68.16
58785;BME280;44557;51.862;19.378;2023-02-28T03:02:40;100647.21;;;-2.15;68.69
58785;BME280;44557;51.862;19.378;2023-02-28T03:04:52;100646.30;;;-2.18;68.66
58785;BME280;44557;51.862;19.378;2023-02-28T03:06:54;100648.08;;;-2.07;68.24
58785;BME280;44557;51.862;19.378;2023-02-28T03:08:56;100651.88;;;-2.19;68.72
58785;BME280;44557;51.862;19.378;2023-02-28T03:11:01;100652.64;;;-2.23;69.06
58785;BME280;44557;51.862;19.378;2023-02-28T03:15:21;100654.11;;;-2.14;68.72
58785;BME280;44557;51.862;19.378;2023-02-28T03:18:08;100651.23;;;-2.21;69.30
58785;BME280;44557;51.862;19.378;2023-02-28T03:20:24;100661.14;;;-2.16;69.14
58785;BME280;44557;51.862;19.378;2023-02-28T03:25:01;100659.25;;;-2.20;69.51
58785;BME280;44557;51.862;19.378;2023-02-28T03:27:08;100660.47;;;-2.29;69.79
58785;BME280;44557;51.862;19.378;2023-02-28T03:29:20;100656.66;;;-2.35;70.12
58785;BME280;44557;51.862;19.378;2023-02-28T03:31:39;100659.56;;;-2.33;70.04
58785;BME280;44557;51.862;19.378;2023-02-28T03:33:46;100661.71;;;-2.37;70.38
58785;BME280;44557;51.862;19.378;2023-02-28T03:36:03;100662.61;;;-2.36;70.57
58785;BME280;44557;51.862;19.378;2023-02-28T03:38:12;100666.67;;;-2.36;70.68
58785;BME280;44557;51.862;19.378;2023-02-28T03:40:20;100669.45;;;-2.38;70.73
58785;BME280;44557;51.862;19.378;2023-02-28T03:42:25;100669.61;;;-2.38;70.66
58785;BME280;44557;51.862;19.378;2023-02-28T03:44:42;100669.58;;;-2.41;70.97
58785;BME280;44557;51.862;19.378;2023-02-28T03:46:53;100671.03;;;-2.44;71.15
58785;BME280;44557;51.862;19.378;2023-02-28T03:49:25;100673.40;;;-2.38;70.88
58785;BME280;44557;51.862;19.378;2023-02-28T03:51:28;100678.85;;;-2.40;70.94
58785;BME280;44557;51.862;19.378;2023-02-28T03:53:36;100681.41;;;-2.42;70.88
58785;BME280;44557;51.862;19.378;2023-02-28T03:55:53;100682.09;;;-2.46;71.22
58785;BME280;44557;51.862;19.378;2023-02-28T03:58:04;100687.12;;;-2.55;71.45
58785;BME280;44557;51.862;19.378;2023-02-28T04:00:19;100688.42;;;-2.53;71.39
58785;BME280;44557;51.862;19.378;2023-02-28T04:02:21;100689.89;;;-2.57;71.63
58785;BME280;44557;51.862;19.378;2023-02-28T04:04:23;100692.61;;;-2.58;71.42
58785;BME280;44557;51.862;19.378;2023-02-28T04:06:24;100691.09;;;-2.63;71.83
58785;BME280;44557;51.862;19.378;2023-02-28T04:08:25;100692.91;;;-2.56;71.57
58785;BME280;44557;51.862;19.378;2023-02-28T04:10:27;100682.68;;;-2.40;70.45
58785;BME280;44557;51.862;19.378;2023-02-28T04:12:28;100676.79;;;-2.38;70.43
58785;BME280;44557;51.862;19.378;2023-02-28T04:14:29;100679.40;;;-2.34;70.13
58785;BME280;44557;51.862;19.378;2023-02-28T04:16:32;100679.06;;;-2.42;70.31
58785;BME280;44557;51.862;19.378;2023-02-28T04:18:33;100677.08;;;-2.40;70.27
58785;BME280;44557;51.862;19.378;2023-02-28T04:20:34;100678.20;;;-2.38;70.47
58785;BME280;44557;51.862;19.378;2023-02-28T04:22:36;100674.96;;;-2.32;70.10
58785;BME280;44557;51.862;19.378;2023-02-28T04:24:37;100681.71;;;-2.40;70.17
58785;BME280;44557;51.862;19.378;2023-02-28T04:26:44;100682.73;;;-2.38;70.16
58785;BME280;44557;51.862;19.378;2023-02-28T04:28:45;100684.79;;;-2.42;70.08
58785;BME280;44557;51.862;19.378;2023-02-28T04:30:46;100679.89;;;-2.51;70.68
58785;BME280;44557;51.862;19.378;2023-02-28T04:32:48;100680.50;;;-2.55;71.10
58785;BME280;44557;51.862;19.378;2023-02-28T04:34:49;100683.52;;;-2.61;71.53
58785;BME280;44557;51.862;19.378;2023-02-28T04:36:50;100678.60;;;-2.51;71.13
58785;BME280;44557;51.862;19.378;2023-02-28T04:38:51;100680.83;;;-2.44;70.92
58785;BME280;44557;51.862;19.378;2023-02-28T04:40:53;100681.23;;;-2.50;71.22
58785;BME280;44557;51.862;19.378;2023-02-28T04:42:54;100684.75;;;-2.57;71.71
58785;BME280;44557;51.862;19.378;2023-02-28T04:44:54;100684.27;;;-2.53;71.48
58785;BME280;44557;51.862;19.378;2023-02-28T04:46:56;100684.52;;;-2.53;71.28
58785;BME280;44557;51.862;19.378;2023-02-28T04:48:56;100685.11;;;-2.42;71.01
58785;BME280;44557;51.862;19.378;2023-02-28T04:51:02;100685.36;;;-2.47;70.96
58785;BME280;44557;51.862;19.378;2023-02-28T04:53:03;100685.45;;;-2.45;71.04
58785;BME280;44557;51.862;19.378;2023-02-28T04:55:05;100686.02;;;-2.36;70.87
58785;BME280;44557;51.862;19.378;2023-02-28T04:57:06;100685.81;;;-2.50;71.15
58785;BME280;44557;51.862;19.378;2023-02-28T04:59:07;100686.92;;;-2.55;71.51
58785;BME280;44557;51.862;19.378;2023-02-28T05:01:29;100686.25;;;-2.52;71.51
58785;BME280;44557;51.862;19.378;2023-02-28T05:03:30;100688.79;;;-2.58;71.50
58785;BME280;44557;51.862;19.378;2023-02-28T05:05:31;100693.29;;;-2.59;71.62
58785;BME280;44557;51.862;19.378;2023-02-28T05:07:32;100694.43;;;-2.58;71.50
58785;BME280;44557;51.862;19.378;2023-02-28T05:09:34;100694.34;;;-2.58;71.35
58785;BME280;44557;51.862;19.378;2023-02-28T05:11:35;100698.90;;;-2.67;71.97
58785;BME280;44557;51.862;19.378;2023-02-28T05:13:37;100697.10;;;-2.71;72.01
58785;BME280;44557;51.862;19.378;2023-02-28T05:15:38;100702.92;;;-2.66;71.95
58785;BME280;44557;51.862;19.378;2023-02-28T05:17:39;100700.95;;;-2.72;72.37
58785;BME280;44557;51.862;19.378;2023-02-28T05:19:40;100702.41;;;-2.72;72.20
58785;BME280;44557;51.862;19.378;2023-02-28T05:21:49;100709.71;;;-2.62;71.58
58785;BME280;44557;51.862;19.378;2023-02-28T05:23:51;100709.36;;;-2.71;71.98
58785;BME280;44557;51.862;19.378;2023-02-28T05:25:53;100707.65;;;-2.64;72.06
58785;BME280;44557;51.862;19.378;2023-02-28T05:27:54;100704.69;;;-2.62;71.67
58785;BME280;44557;51.862;19.378;2023-02-28T05:29:56;100706.98;;;-2.69;72.10
58785;BME280;44557;51.862;19.378;2023-02-28T05:31:57;100707.44;;;-2.72;72.25
58785;BME280;44557;51.862;19.378;2023-02-28T05:33:58;100707.47;;;-2.65;72.22
58785;BME280;44557;51.862;19.378;2023-02-28T05:35:58;100709.35;;;-2.72;72.27
58785;BME280;44557;51.862;19.378;2023-02-28T05:38:00;100709.41;;;-2.67;72.32
58785;BME280;44557;51.862;19.378;2023-02-28T05:40:02;100713.67;;;-2.59;71.90
58785;BME280;44557;51.862;19.378;2023-02-28T05:42:07;100716.02;;;-2.50;71.16
58785;BME280;44557;51.862;19.378;2023-02-28T05:44:09;100717.15;;;-2.54;71.54
58785;BME280;44557;51.862;19.378;2023-02-28T05:46:11;100714.52;;;-2.56;71.62
58785;BME280;44557;51.862;19.378;2023-02-28T05:48:12;100716.63;;;-2.43;71.06
58785;BME280;44557;51.862;19.378;2023-02-28T05:50:13;100715.23;;;-2.29;70.48
58785;BME280;44557;51.862;19.378;2023-02-28T05:52:15;100719.91;;;-2.18;70.21
58785;BME280;44557;51.862;19.378;2023-02-28T05:54:16;100715.84;;;-1.74;68.79
58785;BME280;44557;51.862;19.378;2023-02-28T05:56:17;100710.92;;;-1.49;67.76
58785;BME280;44557;51.862;19.378;2023-02-28T05:58:18;100712.69;;;-1.46;67.40
58785;BME280;44557;51.862;19.378;2023-02-28T06:00:19;100713.36;;;-1.36;66.70
58785;BME280;44557;51.862;19.378;2023-02-28T06:02:21;100717.30;;;-1.29;66.53
58785;BME280;44557;51.862;19.378;2023-02-28T06:04:22;100716.84;;;-1.13;66.45
58785;BME280;44557;51.862;19.378;2023-02-28T06:06:23;100716.39;;;-0.81;65.20
58785;BME280;44557;51.862;19.378;2023-02-28T06:08:24;100719.27;;;-0.43;64.24
58785;BME280;44557;51.862;19.378;2023-02-28T06:10:25;100720.05;;;-0.20;63.08
58785;BME280;44557;51.862;19.378;2023-02-28T06:12:26;100724.41;;;0.09;62.52
58785;BME280;44557;51.862;19.378;2023-02-28T06:14:27;100727.13;;;0.19;61.75
58785;BME280;44557;51.862;19.378;2023-02-28T06:16:29;100730.31;;;0.13;61.54
58785;BME280;44557;51.862;19.378;2023-02-28T06:18:31;100730.73;;;0.13;61.84
58785;BME280;44557;51.862;19.378;2023-02-28T06:20:32;100732.52;;;0.20;61.15
58785;BME280;44557;51.862;19.378;2023-02-28T06:22:35;100732.42;;;0.22;61.25
58785;BME280;44557;51.862;19.378;2023-02-28T06:24:36;100731.73;;;0.45;61.23
58785;BME280;44557;51.862;19.378;2023-02-28T06:26:37;100735.59;;;0.89;59.97
58785;BME280;44557;51.862;19.378;2023-02-28T06:28:38;100736.89;;;1.04;58.18
58785;BME280;44557;51.862;19.378;2023-02-28T06:30:39;100737.63;;;1.40;57.30
58785;BME280;44557;51.862;19.378;2023-02-28T06:32:40;100739.77;;;1.81;55.49
58785;BME280;44557;51.862;19.378;2023-02-28T06:34:41;100744.25;;;2.16;54.52
58785;BME280;44557;51.862;19.378;2023-02-28T06:36:43;100737.36;;;2.96;52.65
58785;BME280;44557;51.862;19.378;2023-02-28T06:38:44;100737.41;;;3.59;50.74
58785;BME280;44557;51.862;19.378;2023-02-28T06:40:53;100739.93;;;3.85;50.02
58785;BME280;44557;51.862;19.378;2023-02-28T06:42:54;100740.92;;;4.23;48.79
58785;BME280;44557;51.862;19.378;2023-02-28T06:44:56;100737.83;;;4.99;46.70
58785;BME280;44557;51.862;19.378;2023-02-28T06:46:57;100737.52;;;5.23;45.84
58785;BME280;44557;51.862;19.378;2023-02-28T06:48:58;100741.79;;;5.54;45.05
58785;BME280;44557;51.862;19.378;2023-02-28T06:51:07;100737.83;;;5.60;44.91
58785;BME280;44557;51.862;19.378;2023-02-28T06:53:09;100743.31;;;6.04;43.51
58785;BME280;44557;51.862;19.378;2023-02-28T06:55:10;100747.29;;;6.41;42.47
58785;BME280;44557;51.862;19.378;2023-02-28T06:57:11;100744.98;;;6.97;41.89
58785;BME280;44557;51.862;19.378;2023-02-28T06:59:12;100745.39;;;6.92;40.91
58785;BME280;44557;51.862;19.378;2023-02-28T07:01:13;100740.19;;;7.04;40.96
58785;BME280;44557;51.862;19.378;2023-02-28T07:03:14;100748.10;;;7.39;40.26
58785;BME280;44557;51.862;19.378;2023-02-28T07:05:16;100743.36;;;7.45;40.48
58785;BME280;44557;51.862;19.378;2023-02-28T07:07:17;100742.73;;;7.86;39.80
58785;BME280;44557;51.862;19.378;2023-02-28T07:09:18;100740.95;;;8.43;38.20
58785;BME280;44557;51.862;19.378;2023-02-28T07:11:21;100742.66;;;8.24;38.15
58785;BME280;44557;51.862;19.378;2023-02-28T07:13:23;100746.41;;;7.42;39.02
58785;BME280;44557;51.862;19.378;2023-02-28T07:15:25;100749.41;;;7.97;38.62
58785;BME280;44557;51.862;19.378;2023-02-28T07:17:25;100752.20;;;8.51;37.70
58785;BME280;44557;51.862;19.378;2023-02-28T07:19:27;100750.30;;;8.11;37.70
58785;BME280;44557;51.862;19.378;2023-02-28T07:21:28;100754.78;;;8.20;37.66
58785;BME280;44557;51.862;19.378;2023-02-28T07:23:30;100751.79;;;8.40;37.24
58785;BME280;44557;51.862;19.378;2023-02-28T07:25:31;100753.21;;;7.81;37.53
58785;BME280;44557;51.862;19.378;2023-02-28T07:27:33;100756.59;;;7.66;38.07
58785;BME280;44557;51.862;19.378;2023-02-28T07:29:35;100755.52;;;7.92;37.99
58785;BME280;44557;51.862;19.378;2023-02-28T07:31:36;100754.89;;;8.09;37.63
58785;BME280;44557;51.862;19.378;2023-02-28T07:33:37;100756.34;;;7.69;38.16
58785;BME280;44557;51.862;19.378;2023-02-28T07:35:38;100755.94;;;7.57;38.13
58785;BME280;44557;51.862;19.378;2023-02-28T07:37:39;100756.73;;;7.77;37.77
58785;BME280;44557;51.862;19.378;2023-02-28T07:39:40;100751.62;;;8.48;37.10
58785;BME280;44557;51.862;19.378;2023-02-28T07:41:44;100749.02;;;9.02;36.14
58785;BME280;44557;51.862;19.378;2023-02-28T07:43:46;100749.19;;;9.22;35.67
58785;BME280;44557;51.862;19.378;2023-02-28T07:45:47;100749.63;;;8.60;36.52
58785;BME280;44557;51.862;19.378;2023-02-28T07:47:48;100752.39;;;8.62;36.15
58785;BME280;44557;51.862;19.378;2023-02-28T07:49:50;100750.56;;;8.71;36.16
58785;BME280;44557;51.862;19.378;2023-02-28T07:51:51;100750.06;;;8.83;35.71
58785;BME280;44557;51.862;19.378;2023-02-28T07:53:52;100749.16;;;8.44;36.30
58785;BME280;44557;51.862;19.378;2023-02-28T07:55:57;100753.02;;;9.08;35.78
58785;BME280;44557;51.862;19.378;2023-02-28T07:57:58;100747.34;;;9.47;35.09
58785;BME280;44557;51.862;19.378;2023-02-28T07:59:59;100748.02;;;8.80;35.34
58785;BME280;44557;51.862;19.378;2023-02-28T08:02:00;100753.70;;;7.96;36.54
58785;BME280;44557;51.862;19.378;2023-02-28T08:04:03;100755.90;;;8.55;35.92
58785;BME280;44557;51.862;19.378;2023-02-28T08:06:06;100752.55;;;9.04;35.35
58785;BME280;44557;51.862;19.378;2023-02-28T08:08:08;100754.77;;;8.96;35.40
58785;BME280;44557;51.862;19.378;2023-02-28T08:10:11;100752.84;;;8.65;35.91
58785;BME280;44557;51.862;19.378;2023-02-28T08:12:12;100752.45;;;9.01;35.33
58785;BME280;44557;51.862;19.378;2023-02-28T08:14:13;100751.20;;;8.83;35.60
58785;BME280;44557;51.862;19.378;2023-02-28T08:16:14;100752.33;;;9.01;35.49
58785;BME280;44557;51.862;19.378;2023-02-28T08:18:17;100751.46;;;8.82;35.81
58785;BME280;44557;51.862;19.378;2023-02-28T08:20:18;100748.55;;;9.08;35.35
58785;BME280;44557;51.862;19.378;2023-02-28T08:22:19;100749.80;;;9.28;35.25
58785;BME280;44557;51.862;19.378;2023-02-28T08:24:24;100752.59;;;9.93;34.36
58785;BME280;44557;51.862;19.378;2023-02-28T08:26:25;100753.64;;;8.86;34.84
58785;BME280;44557;51.862;19.378;2023-02-28T08:28:26;100757.64;;;7.91;36.47
58785;BME280;44557;51.862;19.378;2023-02-28T08:30:27;100751.20;;;8.54;35.30
58785;BME280;44557;51.862;19.378;2023-02-28T08:32:28;100750.58;;;8.86;35.09
58785;BME280;44557;51.862;19.378;2023-02-28T08:34:29;100749.02;;;8.97;34.37
58785;BME280;44557;51.862;19.378;2023-02-28T08:36:30;100748.19;;;8.84;34.61
58785;BME280;44557;51.862;19.378;2023-02-28T08:38:31;100745.38;;;9.18;34.04
58785;BME280;44557;51.862;19.378;2023-02-28T08:40:31;100745.46;;;9.04;33.94
58785;BME280;44557;51.862;19.378;2023-02-28T08:42:32;100747.75;;;8.26;35.10
58785;BME280;44557;51.862;19.378;2023-02-28T08:44:34;100744.37;;;8.21;35.84
58785;BME280;44557;51.862;19.378;2023-02-28T08:46:34;100745.48;;;8.97;34.62
58785;BME280;44557;51.862;19.378;2023-02-28T08:48:35;100739.98;;;9.29;34.44
58785;BME280;44557;51.862;19.378;2023-02-28T08:50:38;100737.46;;;9.23;34.47
58785;BME280;44557;51.862;19.378;2023-02-28T08:52:42;100735.77;;;9.19;34.60
58785;BME280;44557;51.862;19.378;2023-02-28T08:54:43;100737.65;;;9.06;34.79
58785;BME280;44557;51.862;19.378;2023-02-28T08:56:46;100743.91;;;9.53;34.25
58785;BME280;44557;51.862;19.378;2023-02-28T08:58:50;100743.13;;;9.59;34.01
58785;BME280;44557;51.862;19.378;2023-02-28T09:00:51;100749.08;;;9.31;34.28
58785;BME280;44557;51.862;19.378;2023-02-28T09:02:52;100747.43;;;8.89;34.81
58785;BME280;44557;51.862;19.378;2023-02-28T09:04:54;100750.59;;;8.28;34.47
58785;BME280;44557;51.862;19.378;2023-02-28T09:06:56;100756.11;;;7.58;35.70
58785;BME280;44557;51.862;19.378;2023-02-28T09:08:57;100749.98;;;8.15;35.54
58785;BME280;44557;51.862;19.378;2023-02-28T09:11:00;100749.73;;;8.73;35.25
58785;BME280;44557;51.862;19.378;2023-02-28T09:13:02;100743.02;;;9.09;35.37
58785;BME280;44557;51.862;19.378;2023-02-28T09:15:03;100742.12;;;9.12;34.82
58785;BME280;44557;51.862;19.378;2023-02-28T09:17:04;100738.98;;;9.62;34.74
58785;BME280;44557;51.862;19.378;2023-02-28T09:19:06;100744.87;;;8.23;35.38
58785;BME280;44557;51.862;19.378;2023-02-28T09:21:08;100743.89;;;8.30;35.63
58785;BME280;44557;51.862;19.378;2023-02-28T09:23:11;100742.46;;;8.82;35.95
58785;BME280;44557;51.862;19.378;2023-02-28T09:25:13;100741.79;;;9.55;35.16
58785;BME280;44557;51.862;19.378;2023-02-28T09:27:14;100740.16;;;9.77;34.39
58785;BME280;44557;51.862;19.378;2023-02-28T09:29:15;100739.27;;;9.48;34.28
58785;BME280;44557;51.862;19.378;2023-02-28T09:31:27;100739.86;;;9.27;34.33
58785;BME280;44557;51.862;19.378;2023-02-28T09:33:28;100734.02;;;9.10;34.84
58785;BME280;44557;51.862;19.378;2023-02-28T09:35:29;100731.97;;;9.05;35.04
58785;BME280;44557;51.862;19.378;2023-02-28T09:37:31;100731.40;;;9.32;35.05
58785;BME280;44557;51.862;19.378;2023-02-28T09:39:33;100729.02;;;9.55;34.32
58785;BME280;44557;51.862;19.378;2023-02-28T09:41:39;100736.40;;;8.98;35.48
58785;BME280;44557;51.862;19.378;2023-02-28T09:43:52;100729.30;;;9.24;34.62
58785;BME280;44557;51.862;19.378;2023-02-28T09:46:54;100729.45;;;8.63;35.23
58785;BME280;44557;51.862;19.378;2023-02-28T09:48:39;100726.42;;;8.74;35.24
58785;BME280;44557;51.862;19.378;2023-02-28T09:53:28;100725.70;;;8.85;34.97
58785;BME280;44557;51.862;19.378;2023-02-28T09:55:44;100725.45;;;9.18;34.84
58785;BME280;44557;51.862;19.378;2023-02-28T09:57:50;100729.79;;;9.13;34.77
58785;BME280;44557;51.862;19.378;2023-02-28T10:02:58;100727.55;;;9.80;34.10
58785;BME280;44557;51.862;19.378;2023-02-28T10:05:11;100725.60;;;10.20;33.77
58785;BME280;44557;51.862;19.378;2023-02-28T10:07:22;100724.98;;;9.11;35.23
58785;BME280;44557;51.862;19.378;2023-02-28T10:09:30;100732.25;;;10.22;34.21
58785;BME280;44557;51.862;19.378;2023-02-28T10:11:33;100725.86;;;10.02;33.82
58785;BME280;44557;51.862;19.378;2023-02-28T10:15:45;100725.79;;;10.45;32.97
58785;BME280;44557;51.862;19.378;2023-02-28T10:17:51;100727.02;;;9.63;34.11
58785;BME280;44557;51.862;19.378;2023-02-28T10:22:08;100730.34;;;9.57;33.47
58785;BME280;44557;51.862;19.378;2023-02-28T10:26:19;100727.56;;;10.81;32.66
58785;BME280;44557;51.862;19.378;2023-02-28T10:28:20;100724.84;;;11.23;32.32
58785;BME280;44557;51.862;19.378;2023-02-28T10:30:21;100726.60;;;10.71;32.52
58785;BME280;44557;51.862;19.378;2023-02-28T10:32:35;100729.46;;;11.19;32.25
58785;BME280;44557;51.862;19.378;2023-02-28T10:34:37;100732.46;;;11.21;31.97
58785;BME280;44557;51.862;19.378;2023-02-28T10:36:38;100736.89;;;10.63;32.59
58785;BME280;44557;51.862;19.378;2023-02-28T10:38:40;100728.38;;;10.89;32.62
58785;BME280;44557;51.862;19.378;2023-02-28T10:40:44;100729.09;;;10.94;33.02
58785;BME280;44557;51.862;19.378;2023-02-28T10:42:57;100724.97;;;10.43;32.99
58785;BME280;44557;51.862;19.378;2023-02-28T10:45:14;100725.70;;;10.43;32.59
58785;BME280;44557;51.862;19.378;2023-02-28T10:47:17;100730.16;;;10.52;32.21
58785;BME280;44557;51.862;19.378;2023-02-28T10:49:26;100727.41;;;10.80;32.07
58785;BME280;44557;51.862;19.378;2023-02-28T10:51:35;100732.94;;;10.23;32.15
58785;BME280;44557;51.862;19.378;2023-02-28T10:53:47;100733.52;;;10.72;31.94
58785;BME280;44557;51.862;19.378;2023-02-28T10:58:23;100729.64;;;10.73;32.33
58785;BME280;44557;51.862;19.378;2023-02-28T11:00:25;100725.98;;;9.86;33.94
58785;BME280;44557;51.862;19.378;2023-02-28T11:02:36;100727.35;;;8.74;35.86
58785;BME280;44557;51.862;19.378;2023-02-28T11:04:43;100732.95;;;8.23;36.89
58785;BME280;44557;51.862;19.378;2023-02-28T11:06:44;100726.23;;;8.28;36.27
58785;BME280;44557;51.862;19.378;2023-02-28T11:08:59;100726.58;;;8.16;36.71
58785;BME280;44557;51.862;19.378;2023-02-28T11:11:04;100722.52;;;8.65;35.95
58785;BME280;44557;51.862;19.378;2023-02-28T11:13:17;100723.50;;;8.45;37.08
58785;BME280;44557;51.862;19.378;2023-02-28T11:15:28;100725.05;;;8.23;37.98
58785;BME280;44557;51.862;19.378;2023-02-28T11:17:31;100720.71;;;8.58;37.26
58785;BME280;44557;51.862;19.378;2023-02-28T11:19:39;100715.88;;;8.68;36.61